Time;durP1;ratioP1;P1;durP2;ratioP2;P2;SDS_P1;SDS_P2;PMS_P1;PMS_P2;Temp;Humidity;BMP_temperature;BMP_pressure;BME280_temperature;BME280_humidity;BME280_pressure;Samples;Min_cycle;Max_cycle;Signal;HPM_P1;HPM_P2
2023/05/10 00:01:17;;;;;;;25.35;13.82;;;;;;;14.57;100.00;98364.56;4986722;28;20043;-94
2023/05/10 00:03:43;;;;;;;198.45;71.65;;;;;;;14.56;100.00;98360.13;4986684;28;20143;-95
2023/05/10 00:06:09;;;;;;;25.92;12.88;;;;;;;14.56;100.00;98351.25;4987234;28;20026;-95
2023/05/10 00:08:37;;;;;;;26.63;13.50;;;;;;;14.49;100.00;98353.34;4987363;28;20042;-93
2023/05/10 00:11:03;;;;;;;31.45;13.82;;;;;;;14.51;100.00;98351.44;4986724;28;20046;-94
2023/05/10 00:13:29;;;;;;;29.73;13.35;;;;;;;14.47;100.00;98343.66;4986574;28;20047;-94
2023/05/10 00:15:55;;;;;;;25.05;12.85;;;;;;;14.47;100.00;98340.97;4986527;28;20377;-95
2023/05/10 00:18:21;;;;;;;25.00;12.68;;;;;;;14.43;100.00;98331.38;4986688;28;20043;-95
2023/05/10 00:20:48;;;;;;;30.58;13.05;;;;;;;14.39;100.00;98330.66;4986936;28;20053;-95
2023/05/10 00:23:14;;;;;;;63.50;13.85;;;;;;;14.66;100.00;98370.38;4986341;28;20039;-95
2023/05/10 00:25:42;;;;;;;27.25;15.20;;;;;;;14.41;100.00;98339.47;4987386;28;20105;-96
2023/05/10 00:28:08;;;;;;;27.70;14.80;;;;;;;14.36;100.00;98334.34;4986523;28;20047;-95
2023/05/10 00:30:34;;;;;;;26.38;12.45;;;;;;;14.35;100.00;98327.25;4986347;28;20114;-95
2023/05/10 00:33:00;;;;;;;26.52;13.75;;;;;;;14.50;100.00;98351.53;4986827;28;20043;-94
2023/05/10 00:35:27;;;;;;;27.92;13.85;;;;;;;14.35;100.00;98326.38;4987397;28;20042;-95
2023/05/10 00:37:53;;;;;;;23.45;12.90;;;;;;;14.43;100.00;98345.59;4986907;28;20051;-95
2023/05/10 00:40:19;;;;;;;26.30;13.15;;;;;;;14.33;100.00;98315.78;4987543;28;20114;-95
2023/05/10 00:42:47;;;;;;;26.98;13.02;;;;;;;14.43;100.00;98318.84;4992607;28;20046;-95
2023/05/10 00:45:13;;;;;;;64.90;59.77;;;;;;;14.40;100.00;98313.69;5006432;28;20030;-93
2023/05/10 00:47:40;;;;;;;27.02;14.32;;;;;;;14.45;100.00;98319.66;5005807;28;20050;-95
2023/05/10 00:50:07;;;;;;;77.72;24.17;;;;;;;14.45;100.00;98310.75;5005415;28;20053;-95
2023/05/10 00:52:33;;;;;;;27.10;13.80;;;;;;;14.69;100.00;98343.47;5037308;28;20065;-94
2023/05/10 00:55:00;;;;;;;24.40;12.73;;;;;;;14.60;100.00;98326.06;5005259;28;20046;-94
2023/05/10 00:57:26;;;;;;;22.63;11.93;;;;;;;14.56;100.00;98313.78;5004123;28;20053;-94
2023/05/10 00:59:54;;;;;;;27.10;13.10;;;;;;;14.57;100.00;98303.03;5005304;28;20093;-94
2023/05/10 01:02:20;;;;;;;25.52;12.57;;;;;;;14.50;100.00;98304.22;5005743;28;20051;-94
2023/05/10 01:04:47;;;;;;;28.23;12.65;;;;;;;14.51;100.00;98299.75;5038795;28;20129;-94
2023/05/10 01:07:13;;;;;;;193.38;113.38;;;;;;;14.46;100.00;98302.63;5037035;28;20110;-96
2023/05/10 01:09:39;;;;;;;26.70;14.10;;;;;;;14.56;100.00;98321.81;5004752;28;20062;-95
2023/05/10 01:12:07;;;;;;;26.80;13.45;;;;;;;14.71;100.00;98325.53;5004726;28;20162;-95
2023/05/10 01:14:35;;;;;;;30.52;13.77;;;;;;;14.57;100.00;98310.16;5004673;28;20043;-94
2023/05/10 01:17:05;;;;;;;25.15;12.93;;;;;;;14.57;100.00;98315.50;5038042;28;20050;-94
2023/05/10 01:19:34;;;;;;;28.08;12.80;;;;;;;14.48;100.00;98295.41;5003981;28;20047;-95
2023/05/10 01:22:13;;;;;;;25.13;12.38;;;;;;;14.44;100.00;98296.50;5037697;28;20057;-94
2023/05/10 01:24:58;;;;;;;;;;;;;;;14.69;100.00;98338.97;5004076;28;20042;-95
2023/05/10 01:27:47;;;;;;;27.20;13.52;;;;;;;14.51;100.00;98324.69;5006098;28;19967;-94
2023/05/10 01:30:25;;;;;;;;;;;;;;;14.67;100.00;98340.00;5006626;28;20042;-95
2023/05/10 01:32:59;;;;;;;30.48;13.57;;;;;;;14.40;100.00;98284.25;5006697;28;19921;-96
2023/05/10 01:35:32;;;;;;;29.67;14.85;;;;;;;14.35;100.00;98283.59;5005084;28;20070;-95
2023/05/10 01:38:07;;;;;;;35.25;15.90;;;;;;;14.30;100.00;98278.47;5005319;28;20081;-95
2023/05/10 01:40:42;;;;;;;31.27;16.77;;;;;;;14.49;100.00;98318.56;5004887;28;20054;-95
2023/05/10 01:43:16;;;;;;;31.05;14.73;;;;;;;14.31;100.00;98280.22;5004810;28;20425;-95
2023/05/10 01:45:55;;;;;;;30.92;15.38;;;;;;;14.57;100.00;98328.88;5006276;28;20074;-95
2023/05/10 01:48:26;;;;;;;36.97;16.40;;;;;;;14.24;100.00;98286.81;5005436;28;20053;-94
2023/05/10 01:50:55;;;;;;;33.97;15.23;;;;;;;14.49;100.00;98329.25;5005197;28;20050;-96
2023/05/10 01:53:22;;;;;;;34.85;15.70;;;;;;;14.33;100.00;98293.50;5005721;28;20043;-96
2023/05/10 01:55:50;;;;;;;33.67;15.13;;;;;;;14.46;100.00;98321.38;5021779;28;20085;-95
2023/05/10 01:58:21;;;;;;;28.63;14.37;;;;;;;14.34;100.00;98306.81;5005221;28;20042;-94
2023/05/10 02:00:49;;;;;;;31.65;14.90;;;;;;;14.33;100.00;98305.09;5004866;28;20284;-95
2023/05/10 02:03:17;;;;;;;31.70;16.52;;;;;;;14.29;100.00;98306.19;5038208;28;20022;-96
2023/05/10 02:05:48;;;;;;;30.92;15.45;;;;;;;14.26;100.00;98300.97;5004245;28;20078;-94
2023/05/10 02:08:16;;;;;;;30.30;15.55;;;;;;;14.31;100.00;98311.44;5003854;28;20042;-95
2023/05/10 02:10:45;;;;;;;31.83;16.27;;;;;;;14.27;100.00;98301.81;5003309;28;20080;-95
2023/05/10 02:13:12;;;;;;;32.88;17.08;;;;;;;14.23;100.00;98294.91;5004409;28;20400;-95
2023/05/10 02:15:41;;;;;;;38.13;16.95;;;;;;;14.49;100.00;98331.94;5004112;28;20053;-94
2023/05/10 02:18:09;;;;;;;;;;;;;;;14.50;100.00;98333.66;5037733;28;20476;-95
2023/05/10 02:20:36;;;;;;;36.67;16.73;;;;;;;14.20;100.00;98289.72;5003806;28;19928;-94
2023/05/10 02:23:05;;;;;;;36.42;17.13;;;;;;;14.23;100.00;98281.56;5003793;28;20120;-96
2023/05/10 02:25:32;;;;;;;30.98;15.57;;;;;;;14.41;100.00;98323.41;5003580;28;20448;-94
2023/05/10 02:27:59;;;;;;;35.38;16.90;;;;;;;14.41;100.00;98326.09;5003519;28;20043;-95
2023/05/10 02:30:27;;;;;;;34.10;17.05;;;;;;;14.18;100.00;98288.00;5003745;28;20034;-95
2023/05/10 02:32:54;;;;;;;32.22;16.00;;;;;;;14.17;100.00;98283.56;5003172;28;20415;-95
2023/05/10 02:35:22;;;;;;;41.45;17.45;;;;;;;14.13;100.00;98276.63;5003449;28;20047;-96
2023/05/10 02:37:49;;;;;;;35.83;18.23;;;;;;;14.26;100.00;98297.44;5003933;28;20142;-94
2023/05/10 02:40:17;;;;;;;35.33;17.10;;;;;;;14.37;100.00;98305.78;5003389;28;20039;-95
2023/05/10 02:42:47;;;;;;;34.15;16.70;;;;;;;14.17;100.00;98280.91;5002658;28;20058;-94
2023/05/10 02:45:18;;;;;;;37.35;18.35;;;;;;;14.31;100.00;98300.72;5004132;28;20069;-94
2023/05/10 02:47:44;;;;;;;35.97;18.25;;;;;;;14.17;100.00;98267.53;5003069;28;20109;-95
2023/05/10 02:50:10;;;;;;;35.10;17.67;;;;;;;14.36;100.00;98294.22;5003375;28;20065;-94
2023/05/10 02:52:40;;;;;;;40.33;16.95;;;;;;;14.23;100.00;98273.53;5003330;28;20133;-95
2023/05/10 02:55:09;;;;;;;36.72;18.25;;;;;;;14.46;100.00;98312.47;5002921;28;20504;-94
2023/05/10 02:57:41;;;;;;;36.63;17.17;;;;;;;14.21;100.00;98262.03;5001991;28;20050;-94
2023/05/10 03:00:08;;;;;;;36.30;16.88;;;;;;;14.23;100.00;98254.81;5001931;28;20048;-94
2023/05/10 03:02:34;;;;;;;35.50;17.08;;;;;;;14.28;100.00;98263.47;5003128;28;20046;-94
2023/05/10 03:05:00;;;;;;;38.53;18.40;;;;;;;14.30;100.00;98259.75;5002948;28;20093;-94
2023/05/10 03:07:26;;;;;;;37.03;17.27;;;;;;;14.28;100.00;98258.97;5003667;28;20038;-94
2023/05/10 03:09:52;;;;;;;37.75;17.40;;;;;;;14.31;100.00;98258.84;5002815;28;20097;-94
2023/05/10 03:12:27;;;;;;;36.63;17.50;;;;;;;14.29;100.00;98257.16;5003001;28;20046;-94
2023/05/10 03:15:03;;;;;;;38.00;18.50;;;;;;;14.55;100.00;98294.22;5003133;28;20050;-94
2023/05/10 03:17:33;;;;;;;32.75;16.85;;;;;;;14.33;100.00;98256.06;5002502;28;20129;-94
2023/05/10 03:20:07;;;;;;;40.10;18.30;;;;;;;14.44;100.00;98272.41;5036139;28;20053;-94
2023/05/10 03:22:37;;;;;;;43.53;18.88;;;;;;;14.25;100.00;98248.44;5002688;28;20042;-95
2023/05/10 03:25:06;;;;;;;35.40;18.10;;;;;;;14.26;100.00;98244.81;5002498;28;20111;-95
2023/05/10 03:27:33;;;;;;;38.63;17.80;;;;;;;14.26;100.00;98244.81;5002860;28;20042;-95
2023/05/10 03:30:02;;;;;;;40.85;18.35;;;;;;;14.24;100.00;98232.47;5003193;28;20066;-95
2023/05/10 03:32:31;;;;;;;38.08;17.10;;;;;;;14.35;100.00;98246.16;5002454;28;20050;-94
2023/05/10 03:34:57;;;;;;;45.60;18.67;;;;;;;14.36;100.00;98240.72;5002598;28;20046;-94
2023/05/10 03:37:23;;;;;;;41.10;19.38;;;;;;;14.48;100.00;98279.34;5035380;28;20073;-95
2023/05/10 03:39:49;;;;;;;42.05;19.58;;;;;;;14.22;100.00;98242.38;5002652;28;20105;-94
2023/05/10 03:42:17;;;;;;;41.22;18.83;;;;;;;14.28;100.00;98242.06;5004188;28;20090;-95
2023/05/10 03:44:43;;;;;;;39.53;18.35;;;;;;;14.20;100.00;98231.72;5006462;28;20054;-95
2023/05/10 03:47:11;;;;;;;37.55;18.13;;;;;;;14.30;100.00;98230.34;5005570;28;20140;-94
2023/05/10 03:49:36;;;;;;;40.72;18.90;;;;;;;14.47;100.00;98274.09;5003641;28;20050;-95
2023/05/10 03:52:03;;;;;;;37.78;18.75;;;;;;;14.16;100.00;98228.38;5005674;28;20100;-94
2023/05/10 03:54:29;;;;;;;39.40;19.13;;;;;;;14.20;100.00;98238.91;5006029;28;20069;-95
2023/05/10 03:56:55;;;;;;;42.22;18.60;;;;;;;14.09;100.00;98237.63;5006017;28;20065;-95
2023/05/10 03:59:21;;;;;;;45.20;20.13;;;;;;;14.07;100.00;98238.66;5038326;28;20046;-95
2023/05/10 04:01:46;;;;;;;45.65;19.90;;;;;;;14.11;100.00;98251.78;5005904;28;20080;-95
2023/05/10 04:04:14;;;;;;;41.83;19.73;;;;;;;14.03;100.00;98237.06;5005695;28;20046;-96
2023/05/10 04:06:40;;;;;;;43.92;20.60;;;;;;;14.02;100.00;98232.66;5006378;28;20041;-96
2023/05/10 04:09:06;;;;;;;43.15;19.45;;;;;;;14.00;100.00;98243.44;5005712;28;20046;-95
2023/05/10 04:11:32;;;;;;;49.25;20.70;;;;;;;13.97;100.00;98227.56;5005892;28;20045;-95
2023/05/10 04:13:58;;;;;;;42.63;19.77;;;;;;;13.97;100.00;98236.44;5005962;28;20053;-95
2023/05/10 04:16:24;;;;;;;42.20;20.15;;;;;;;14.03;100.00;98231.72;5005594;28;20076;-93
2023/05/10 04:18:50;;;;;;;51.55;20.27;;;;;;;14.07;100.00;98231.47;5005272;28;20147;-95
2023/05/10 04:21:18;;;;;;;43.47;18.75;;;;;;;14.20;100.00;98252.28;5005194;28;20093;-96
2023/05/10 04:23:44;;;;;;;47.22;19.48;;;;;;;14.18;100.00;98241.63;5005379;28;20487;-96
2023/05/10 04:26:10;;;;;;;46.30;20.52;;;;;;;14.09;100.00;98226.06;5004695;28;20045;-96
2023/05/10 04:28:36;;;;;;;39.67;19.00;;;;;;;14.11;100.00;98229.53;5005163;28;20049;-95
2023/05/10 04:31:03;;;;;;;45.40;20.15;;;;;;;14.12;100.00;98229.47;5005089;28;20156;-94
2023/05/10 04:33:29;;;;;;;41.63;20.50;;;;;;;14.16;100.00;98232.81;5021681;28;20073;-95
2023/05/10 04:35:55;;;;;;;41.75;19.20;;;;;;;14.27;100.00;98248.34;5005409;28;20137;-95
2023/05/10 04:38:23;;;;;;;49.42;21.17;;;;;;;14.28;100.00;98231.38;5004469;28;20085;-95
2023/05/10 04:40:49;;;;;;;42.63;19.20;;;;;;;14.25;100.00;98226.16;5004496;28;20060;-95
2023/05/10 04:43:15;;;;;;;39.10;18.88;;;;;;;14.33;100.00;98226.63;5002164;28;20145;-94
2023/05/10 04:45:41;;;;;;;39.80;17.98;;;;;;;14.44;100.00;98226.94;5002241;28;20473;-96
2023/05/10 04:48:07;;;;;;;48.33;20.65;;;;;;;14.50;100.00;98231.97;5002546;28;20053;-95
2023/05/10 04:50:33;;;;;;;42.28;19.58;;;;;;;14.45;100.00;98223.34;5001512;28;20042;-96
2023/05/10 04:52:59;;;;;;;46.95;21.35;;;;;;;14.68;100.00;98256.09;5001611;28;20039;-93
2023/05/10 04:55:26;;;;;;;42.22;19.55;;;;;;;14.55;100.00;98218.41;5001535;28;20393;-95
2023/05/10 04:57:52;;;;;;;46.10;20.98;;;;;;;14.74;100.00;98250.41;5001787;28;20043;-96
2023/05/10 05:00:19;;;;;;;48.75;21.17;;;;;;;14.88;100.00;98247.91;5034481;28;20069;-95
2023/05/10 05:02:45;;;;;;;43.58;19.70;;;;;;;14.77;100.00;98216.34;5001287;28;20053;-96
2023/05/10 05:05:11;;;;;;;44.75;20.15;;;;;;;14.77;100.00;98218.16;5001203;28;20050;-94
2023/05/10 05:07:38;;;;;;;42.28;19.60;;;;;;;14.72;100.00;98209.50;5001855;28;20051;-95
2023/05/10 05:10:05;;;;;;;44.17;19.70;;;;;;;14.78;100.00;98220.72;5001166;28;20046;-95
2023/05/10 05:12:32;;;;;;;41.67;19.30;;;;;;;14.83;100.00;98223.16;5001674;28;20606;-96
2023/05/10 05:14:58;;;;;;;47.13;20.75;;;;;;;14.84;100.00;98222.22;5001703;28;20042;-95
2023/05/10 05:17:25;;;;;;;47.75;19.92;;;;;;;15.11;100.00;98260.03;5003865;28;20050;-96
2023/05/10 05:19:51;;;;;;;46.75;20.40;;;;;;;15.10;100.00;98250.28;5003639;28;20054;-95
2023/05/10 05:22:17;;;;;;;42.45;19.92;;;;;;;15.00;100.00;98219.59;5002837;28;20096;-96
2023/05/10 05:24:43;;;;;;;44.58;21.60;;;;;;;15.13;100.00;98238.53;5002567;28;20043;-95
2023/05/10 05:27:09;;;;;;;42.08;19.25;;;;;;;15.11;100.00;98229.72;5002169;28;20552;-95
2023/05/10 05:29:37;;;;;;;43.38;21.23;;;;;;;15.06;100.00;98215.72;5001537;28;20073;-94
2023/05/10 05:32:03;;;;;;;43.20;20.85;;;;;;;15.25;100.00;98253.97;5000685;28;20046;-94
2023/05/10 05:34:29;;;;;;;46.50;19.50;;;;;;;15.02;100.00;98206.13;4999709;28;20133;-95
2023/05/10 05:36:55;;;;;;;45.53;19.73;;;;;;;15.00;100.00;98215.09;5002360;28;20505;-95
2023/05/10 05:39:22;;;;;;;41.15;19.92;;;;;;;15.11;100.00;98221.69;5000669;28;20145;-94
2023/05/10 05:41:48;;;;;;;40.80;18.67;;;;;;;15.04;100.00;98204.22;5000687;28;20435;-95
2023/05/10 05:44:14;;;;;;;41.63;20.27;;;;;;;15.08;100.00;98214.69;4998840;28;20055;-96
2023/05/10 05:46:41;;;;;;;42.72;19.95;;;;;;;15.10;100.00;98209.25;5000762;28;20046;-95
2023/05/10 05:49:07;;;;;;;38.47;17.98;;;;;;;15.04;100.00;98199.75;5000042;28;20492;-96
2023/05/10 05:51:34;;;;;;;41.92;19.38;;;;;;;15.37;100.00;98247.06;5000798;28;20062;-95
2023/05/10 05:54:00;;;;;;;41.83;19.65;;;;;;;15.17;100.00;98226.72;4999568;28;20051;-94
2023/05/10 05:56:26;;;;;;;42.72;19.63;;;;;;;15.05;100.00;98201.47;4999946;28;20046;-95
2023/05/10 05:58:52;;;;;;;38.10;18.38;;;;;;;15.03;100.00;98206.06;4999915;28;20035;-95
2023/05/10 06:01:18;;;;;;;38.53;19.05;;;;;;;15.06;100.00;98208.56;5002226;28;20073;-96
2023/05/10 06:03:46;;;;;;;42.88;18.90;;;;;;;15.18;100.00;98215.94;5004234;28;20058;-94
2023/05/10 06:06:12;;;;;;;44.63;20.02;;;;;;;15.12;100.00;98202.88;5004072;28;20038;-94
2023/05/10 06:08:38;;;;;;;39.72;18.55;;;;;;;15.08;100.00;98206.66;5000455;28;20043;-95
2023/05/10 06:11:04;;;;;;;43.45;19.00;;;;;;;15.17;100.00;98202.63;5014965;28;20073;-95
2023/05/10 06:13:32;;;;;;;39.67;17.83;;;;;;;15.15;100.00;98194.66;5006804;28;20531;-95
2023/05/10 06:15:58;;;;;;;40.25;18.20;;;;;;;15.28;100.00;98205.56;5004097;28;20046;-95
2023/05/10 06:18:24;;;;;;;38.53;18.70;;;;;;;15.61;100.00;98231.41;4988209;28;20038;-94
2023/05/10 06:20:51;;;;;;;34.72;17.52;;;;;;;15.50;100.00;98204.38;5012965;28;20200;-94
2023/05/10 06:23:17;;;;;;;36.03;17.52;;;;;;;15.70;100.00;98233.59;4998842;28;20046;-95
2023/05/10 06:25:43;;;;;;;40.47;19.15;;;;;;;15.57;100.00;98217.34;5015823;28;20074;-94
2023/05/10 06:28:09;;;;;;;39.80;18.50;;;;;;;15.48;100.00;98200.91;5014252;28;20100;-95
2023/05/10 06:30:36;;;;;;;37.33;18.00;;;;;;;15.47;100.00;98197.38;5002376;28;20038;-95
2023/05/10 06:33:02;;;;;;;33.38;16.17;;;;;;;15.50;100.00;98199.00;5002860;28;20111;-95
2023/05/10 06:35:28;;;;;;;37.03;17.20;;;;;;;15.70;100.00;98214.84;5002862;28;20047;-95
2023/05/10 06:37:55;;;;;;;35.20;16.85;;;;;;;15.64;100.00;98199.09;5002723;28;20042;-94
2023/05/10 06:40:21;;;;;;;35.90;17.17;;;;;;;15.67;100.00;98196.25;5002117;28;20057;-95
2023/05/10 06:42:48;;;;;;;30.15;15.70;;;;;;;15.78;100.00;98212.59;5001432;28;20058;-94
2023/05/10 06:45:14;;;;;;;34.70;16.20;;;;;;;15.95;100.00;98243.81;5001479;28;20578;-95
2023/05/10 06:47:40;;;;;;;30.45;15.52;;;;;;;15.75;100.00;98196.69;5004666;28;20050;-96
2023/05/10 06:50:07;;;;;;;28.52;14.80;;;;;;;15.85;100.00;98198.84;5022464;28;20046;-96
2023/05/10 06:52:33;;;;;;;37.33;15.98;;;;;;;16.03;100.00;98221.94;5006479;28;20046;-93
2023/05/10 06:55:01;;;;;;;29.95;15.57;;;;;;;15.84;100.00;98195.31;5002717;28;20038;-96
2023/05/10 06:57:27;;;;;;;31.45;14.48;;;;;;;16.01;100.00;98239.94;5002175;28;20038;-95
2023/05/10 06:59:53;;;;;;;32.03;14.63;;;;;;;15.99;100.00;98225.75;5002887;28;20079;-94
2023/05/10 07:02:19;;;;;;;33.78;14.60;;;;;;;16.04;100.00;98212.91;5001930;28;20118;-95
2023/05/10 07:04:47;;;;;;;43.80;18.13;;;;;;;16.08;100.00;98197.53;5003403;28;20081;-94
2023/05/10 07:07:13;;;;;;;27.67;15.35;;;;;;;16.49;100.00;98239.81;5002653;28;20042;-94
2023/05/10 07:09:40;;;;;;;33.65;16.70;;;;;;;16.21;100.00;98194.00;5020347;28;20133;-95
2023/05/10 07:12:07;;;;;;;33.75;17.17;;;;;;;16.19;100.00;98203.13;5002998;28;20501;-95
2023/05/10 07:14:33;;;;;;;29.85;16.48;;;;;;;16.30;100.00;98219.44;5003270;28;20053;-95
2023/05/10 07:16:59;;;;;;;30.45;14.35;;;;;;;16.21;100.00;98195.84;5003736;28;20125;-95
2023/05/10 07:19:25;;;;;;;29.88;14.80;;;;;;;16.28;100.00;98190.97;5000986;28;20042;-95
2023/05/10 07:21:51;;;;;;;33.22;16.75;;;;;;;16.35;100.00;98187.84;5005894;28;20049;-94
2023/05/10 07:24:17;;;;;;;35.25;18.00;;;;;;;16.49;100.00;98205.78;5019831;28;20049;-93
2023/05/10 07:26:43;;;;;;;33.78;16.15;;;;;;;16.48;100.00;98197.81;5018017;28;20050;-95
2023/05/10 07:29:10;;;;;;;29.27;14.63;;;;;;;16.42;100.00;98194.56;5012592;28;20047;-95
2023/05/10 07:31:36;;;;;;;30.55;15.00;;;;;;;16.44;100.00;98194.47;5006174;28;20046;-94
2023/05/10 07:34:02;;;;;;;28.40;14.77;;;;;;;16.49;100.00;98194.19;5000077;28;20038;-96
2023/05/10 07:36:28;;;;;;;30.00;15.95;;;;;;;16.56;100.00;98188.34;5000700;28;20042;-95
2023/05/10 07:38:54;;;;;;;30.02;15.52;;;;;;;16.72;100.00;98203.53;5008404;28;20066;-94
2023/05/10 07:41:20;;;;;;;28.15;13.85;;;;;;;16.71;100.00;98194.59;5009367;28;20061;-94
2023/05/10 07:43:46;;;;;;;24.42;13.30;;;;;;;16.78;100.00;98190.56;4999912;28;20451;-94
2023/05/10 07:46:14;;;;;;;26.25;14.45;;;;;;;16.90;100.00;98191.69;4999258;28;20046;-95
2023/05/10 07:48:40;;;;;;;26.08;13.70;;;;;;;17.02;100.00;98204.38;5013311;28;20069;-95
2023/05/10 07:51:07;;;;;;;30.30;14.48;;;;;;;17.08;100.00;98189.66;5010083;28;20050;-95
2023/05/10 07:53:33;;;;;;;23.38;13.20;;;;;;;17.01;100.00;98205.31;5000035;28;20053;-95
2023/05/10 07:56:19;;;;;;;26.17;14.02;;;;;;;16.74;100.00;98185.50;5004000;28;20049;-94
2023/05/10 07:58:44;;;;;;;28.05;13.80;;;;;;;16.51;100.00;98190.47;5004175;28;20120;-94
2023/05/10 08:01:10;;;;;;;28.15;14.25;;;;;;;16.48;100.00;98196.03;4999287;28;20038;-96
2023/05/10 08:03:38;;;;;;;27.40;13.75;;;;;;;16.40;100.00;98188.41;4999243;28;20515;-95
2023/05/10 08:06:04;;;;;;;28.20;14.13;;;;;;;16.53;100.00;98214.53;5000568;28;20046;-95
2023/05/10 08:08:30;;;;;;;29.10;14.63;;;;;;;16.28;100.00;98193.66;5000872;28;20046;-95
2023/05/10 08:10:56;;;;;;;27.13;15.07;;;;;;;16.42;100.00;98218.72;5001742;28;20062;-95
2023/05/10 08:13:22;;;;;;;32.17;15.57;;;;;;;16.28;100.00;98215.13;5002293;28;20073;-95
2023/05/10 08:15:48;;;;;;;28.70;14.65;;;;;;;16.04;100.00;98196.81;5002444;28;20496;-95
2023/05/10 08:18:14;;;;;;;31.50;15.55;;;;;;;16.18;100.00;98202.25;5001966;28;20086;-94
2023/05/10 08:20:42;;;;;;;29.60;15.27;;;;;;;16.26;100.00;98196.41;5002611;28;20042;-95
2023/05/10 08:23:08;;;;;;;29.20;14.32;;;;;;;16.26;100.00;98193.75;5001027;28;20554;-96
2023/05/10 08:25:34;;;;;;;31.15;15.60;;;;;;;16.28;100.00;98185.59;5002758;28;20097;-95
2023/05/10 08:28:00;;;;;;;31.52;15.82;;;;;;;16.30;100.00;98187.22;5020917;28;20468;-94
2023/05/10 08:30:26;;;;;;;32.30;15.18;;;;;;;16.50;100.00;98222.75;5022921;28;20084;-94
2023/05/10 08:32:52;;;;;;;29.17;15.57;;;;;;;16.28;100.00;98201.69;5019228;28;20072;-94
2023/05/10 08:35:18;;;;;;;30.30;15.90;;;;;;;16.22;100.00;98221.69;5001688;28;20105;-94
2023/05/10 08:37:45;;;;;;;30.77;15.63;;;;;;;15.92;100.00;98192.19;5001448;28;20088;-95
2023/05/10 08:40:12;;;;;;;30.58;15.65;;;;;;;15.88;100.00;98202.22;5016500;28;20514;-94
2023/05/10 08:42:42;;;;;;;29.60;14.63;;;;;;;15.80;100.00;98194.59;5006543;28;20054;-95
2023/05/10 08:45:10;;;;;;;27.20;13.95;;;;;;;15.74;100.00;98183.38;5007398;28;20386;-95
2023/05/10 08:47:37;;;;;;;30.88;15.45;;;;;;;16.05;100.00;98221.81;5000826;28;20133;-94
2023/05/10 08:50:04;;;;;;;26.90;14.65;;;;;;;16.16;100.00;98214.91;5001465;28;20038;-94
2023/05/10 08:52:32;;;;;;;29.30;14.98;;;;;;;16.27;100.00;98216.09;5001108;28;20057;-96
2023/05/10 08:55:00;;;;;;;27.77;14.82;;;;;;;16.23;100.00;98207.34;5001037;28;20122;-93
2023/05/10 08:57:26;;;;;;;30.92;14.77;;;;;;;16.11;100.00;98190.16;5000552;28;20037;-95
2023/05/10 08:59:52;;;;;;;31.13;14.73;;;;;;;16.11;100.00;98187.50;5000659;28;20046;-94
2023/05/10 09:02:20;;;;;;;26.77;15.07;;;;;;;16.07;100.00;98177.88;5000620;28;20042;-94
2023/05/10 09:04:46;;;;;;;28.10;15.82;;;;;;;16.26;100.00;98185.69;4999132;28;20047;-96
2023/05/10 09:07:12;;;;;;;34.00;17.27;;;;;;;16.33;100.00;98186.19;5000896;28;20073;-94
2023/05/10 09:09:38;;;;;;;29.17;14.85;;;;;;;16.31;100.00;98188.09;5000994;28;20066;-95
2023/05/10 09:12:10;;;;;;;31.73;15.77;;;;;;;16.34;100.00;98185.25;5001094;28;20035;-95
2023/05/10 09:14:37;;;;;;;34.22;16.80;;;;;;;16.35;100.00;98181.59;5000527;28;20046;-96
2023/05/10 09:17:04;;;;;;;42.80;22.08;;;;;;;16.40;100.00;98176.84;5001198;28;20050;-95
2023/05/10 09:19:30;;;;;;;47.42;24.33;;;;;;;16.40;100.00;98177.69;5009237;28;20169;-94
2023/05/10 09:21:56;;;;;;;48.53;23.00;;;;;;;16.48;100.00;98174.56;5020627;28;20444;-95
2023/05/10 09:24:26;;;;;;;42.17;20.38;;;;;;;16.79;100.00;98194.16;5020920;28;20116;-96
2023/05/10 09:26:53;;;;;;;49.95;24.20;;;;;;;16.92;100.00;98170.13;5021493;28;20050;-96
2023/05/10 09:29:20;;;;;;;47.22;22.65;;;;;;;17.31;100.00;98190.91;5019294;28;20042;-94
2023/05/10 09:31:50;;;;;;;57.90;26.75;;;;;;;17.32;100.00;98197.16;5018169;28;20042;-96
2023/05/10 09:34:17;;;;;;;54.85;27.40;;;;;;;17.15;100.00;98180.25;5019749;28;20045;-95
2023/05/10 09:36:54;;;;;;;62.97;29.77;;;;;;;17.16;100.00;98175.78;5020956;28;20046;-95
2023/05/10 09:39:29;;;;;;;65.20;31.48;;;;;;;17.17;100.00;98159.53;5022666;28;20054;-95
2023/05/10 09:41:55;;;;;;;42.38;22.23;;;;;;;17.35;100.00;98181.69;5019138;28;20073;-96
2023/05/10 09:44:25;;;;;;;36.88;19.52;;;;;;;17.14;100.00;98153.50;5019132;28;20104;-95
2023/05/10 09:46:52;;;;;;;30.48;14.93;;;;;;;17.06;100.00;98175.47;5019394;28;20030;-95
2023/05/10 09:49:19;;;;;;;24.98;14.07;;;;;;;16.87;100.00;98158.78;5025431;28;20053;-96
2023/05/10 09:51:46;;;;;;;26.55;13.43;;;;;;;16.82;100.00;98151.88;5027517;28;20045;-95
2023/05/10 09:54:13;;;;;;;20.60;11.52;;;;;;;16.73;100.00;98152.41;5027261;28;20488;-96
2023/05/10 09:56:40;;;;;;;21.55;12.75;;;;;;;16.68;100.00;98140.25;5027628;28;20046;-94
2023/05/10 09:59:08;;;;;;;24.33;11.40;;;;;;;16.69;100.00;98147.34;5026857;28;20042;-96
2023/05/10 10:01:36;;;;;;;24.20;12.20;;;;;;;16.81;100.00;98146.63;5026942;28;20042;-95
2023/05/10 10:04:04;;;;;;;23.42;12.15;;;;;;;17.04;100.00;98170.22;5060043;28;20037;-95
2023/05/10 10:06:38;;;;;;;23.52;11.73;;;;;;;16.86;100.00;98140.97;5027183;28;20046;-96
2023/05/10 10:09:05;;;;;;;22.50;12.63;;;;;;;17.21;100.00;98176.31;5028078;28;20049;-95
2023/05/10 10:11:32;;;;;;;21.08;11.40;;;;;;;17.33;100.00;98172.00;5029250;28;20049;-95
2023/05/10 10:13:59;;;;;;;27.30;12.18;;;;;;;17.49;100.00;98183.47;5028467;28;20048;-96
2023/05/10 10:16:28;;;;;;;22.30;11.93;;;;;;;17.22;100.00;98132.41;5061040;28;20069;-96
2023/05/10 10:18:56;;;;;;;;;;;;;;;17.36;100.00;98178.03;5028854;28;20052;-95
2023/05/10 10:21:22;;;;;;;21.67;11.57;;;;;;;17.12;100.00;98128.56;5029422;28;19929;-96
2023/05/10 10:23:48;;;;;;;18.38;10.93;;;;;;;17.38;100.00;98157.28;5027995;28;20048;-95
2023/05/10 10:26:17;;;;;;;24.20;12.00;;;;;;;17.19;100.00;98127.19;5023723;28;20042;-95
2023/05/10 10:28:52;;;;;;;20.60;11.32;;;;;;;17.23;100.00;98132.28;5062740;28;20073;-94
2023/05/10 10:31:26;;;;;;;23.83;12.20;;;;;;;17.53;100.00;98160.81;5032052;28;20060;-95
2023/05/10 10:34:01;;;;;;;21.27;12.07;;;;;;;17.38;100.00;98135.78;5030368;28;20050;-96
2023/05/10 10:36:28;;;;;;;19.83;11.90;;;;;;;17.37;100.00;98133.19;5028836;28;20071;-94
2023/05/10 10:39:00;;;;;;;25.55;13.35;;;;;;;17.15;100.00;98110.41;5032830;28;20030;-96
2023/05/10 10:41:34;;;;;;;24.10;11.80;;;;;;;17.02;100.00;98114.84;5029051;28;20046;-95
2023/05/10 10:44:26;;;;;;;22.30;13.25;;;;;;;17.29;100.00;98162.41;5065085;28;20057;-96
2023/05/10 10:47:08;;;;;;;23.67;11.57;;;;;;;17.22;100.00;98124.34;5064319;28;20046;-96
2023/05/10 10:49:48;;;;;;;24.52;12.40;;;;;;;17.50;100.00;98139.53;5029000;28;20533;-96
2023/05/10 10:52:21;;;;;;;24.02;12.18;;;;;;;17.32;100.00;98124.59;5029085;28;20042;-95
2023/05/10 10:54:54;;;;;;;24.15;11.85;;;;;;;17.00;100.00;98096.16;5027858;28;20110;-95
2023/05/10 10:57:26;;;;;;;20.92;11.18;;;;;;;17.04;100.00;98100.38;5031695;28;20030;-96
2023/05/10 11:00:26;;;;;;;20.17;10.98;;;;;;;17.15;100.00;98115.78;5028050;28;20042;-94
2023/05/10 11:02:56;;;;;;;21.90;12.30;;;;;;;17.01;100.00;98099.69;5024897;28;20054;-94
2023/05/10 11:05:38;;;;;;;24.20;13.07;;;;;;;17.11;100.00;98091.91;5024030;28;20046;-95
2023/05/10 11:08:10;;;;;;;24.73;12.23;;;;;;;17.33;100.00;98086.88;5027028;28;20057;-95
2023/05/10 11:10:37;;;;;;;26.58;13.82;;;;;;;17.44;100.00;98088.84;5027433;28;20046;-94
2023/05/10 11:13:05;;;;;;;22.85;12.30;;;;;;;17.46;100.00;98092.31;5061358;28;20046;-95